sensor_id;sensor_type;location;lat;lon;timestamp;P1;durP1;ratioP1;P2;durP2;ratioP2
21860;SDS011;11095;48.066;8.540;2022-07-25T00:00:33;11.32;;;9.85;;
21860;SDS011;11095;48.066;8.540;2022-07-25T00:02:59;11.38;;;10.25;;
21860;SDS011;11095;48.066;8.540;2022-07-25T00:05:25;11.50;;;10.38;;
21860;SDS011;11095;48.066;8.540;2022-07-25T00:07:50;11.50;;;10.40;;
21860;SDS011;11095;48.066;8.540;2022-07-25T00:10:16;10.80;;;9.80;;
21860;SDS011;11095;48.066;8.540;2022-07-25T00:12:42;11.48;;;10.38;;
21860;SDS011;11095;48.066;8.540;2022-07-25T00:15:08;10.95;;;9.95;;
21860;SDS011;11095;48.066;8.540;2022-07-25T00:17:34;12.00;;;10.70;;
21860;SDS011;11095;48.066;8.540;2022-07-25T00:20:00;12.13;;;10.98;;
21860;SDS011;11095;48.066;8.540;2022-07-25T00:22:26;11.32;;;10.23;;
21860;SDS011;11095;48.066;8.540;2022-07-25T00:24:52;11.00;;;9.95;;
21860;SDS011;11095;48.066;8.540;2022-07-25T00:27:17;11.30;;;10.20;;
21860;SDS011;11095;48.066;8.540;2022-07-25T00:29:43;11.48;;;10.30;;
21860;SDS011;11095;48.066;8.540;2022-07-25T00:32:09;11.85;;;10.70;;
21860;SDS011;11095;48.066;8.540;2022-07-25T00:34:34;11.85;;;10.63;;
21860;SDS011;11095;48.066;8.540;2022-07-25T00:37:00;11.70;;;10.45;;
21860;SDS011;11095;48.066;8.540;2022-07-25T00:39:26;12.43;;;11.23;;
21860;SDS011;11095;48.066;8.540;2022-07-25T00:41:51;11.60;;;10.50;;
21860;SDS011;11095;48.066;8.540;2022-07-25T00:44:30;12.25;;;11.05;;
21860;SDS011;11095;48.066;8.540;2022-07-25T00:46:57;12.05;;;10.82;;
21860;SDS011;11095;48.066;8.540;2022-07-25T00:49:23;12.20;;;11.00;;
21860;SDS011;11095;48.066;8.540;2022-07-25T00:51:50;12.30;;;11.13;;
21860;SDS011;11095;48.066;8.540;2022-07-25T00:54:17;12.25;;;11.05;;
21860;SDS011;11095;48.066;8.540;2022-07-25T00:56:43;13.88;;;12.48;;
21860;SDS011;11095;48.066;8.540;2022-07-25T00:59:09;12.68;;;11.48;;
21860;SDS011;11095;48.066;8.540;2022-07-25T01:01:35;13.02;;;11.50;;
21860;SDS011;11095;48.066;8.540;2022-07-25T01:04:02;12.18;;;10.98;;
21860;SDS011;11095;48.066;8.540;2022-07-25T01:06:28;12.68;;;11.48;;
21860;SDS011;11095;48.066;8.540;2022-07-25T01:08:55;13.10;;;11.80;;
21860;SDS011;11095;48.066;8.540;2022-07-25T01:11:21;12.63;;;11.32;;
21860;SDS011;11095;48.066;8.540;2022-07-25T01:13:47;12.57;;;11.35;;
21860;SDS011;11095;48.066;8.540;2022-07-25T01:16:12;13.02;;;11.82;;
21860;SDS011;11095;48.066;8.540;2022-07-25T01:18:38;13.85;;;12.45;;
21860;SDS011;11095;48.066;8.540;2022-07-25T01:21:04;13.10;;;11.80;;
21860;SDS011;11095;48.066;8.540;2022-07-25T01:23:30;13.23;;;11.90;;
21860;SDS011;11095;48.066;8.540;2022-07-25T01:25:56;13.88;;;12.48;;
21860;SDS011;11095;48.066;8.540;2022-07-25T01:28:22;14.13;;;12.73;;
21860;SDS011;11095;48.066;8.540;2022-07-25T01:30:48;13.18;;;11.85;;
21860;SDS011;11095;48.066;8.540;2022-07-25T01:33:14;14.07;;;12.68;;
21860;SDS011;11095;48.066;8.540;2022-07-25T01:35:41;14.07;;;12.65;;
21860;SDS011;11095;48.066;8.540;2022-07-25T01:38:06;13.80;;;12.40;;
21860;SDS011;11095;48.066;8.540;2022-07-25T01:40:32;13.93;;;12.30;;
21860;SDS011;11095;48.066;8.540;2022-07-25T01:42:58;13.70;;;12.38;;
21860;SDS011;11095;48.066;8.540;2022-07-25T01:45:23;13.82;;;12.40;;
21860;SDS011;11095;48.066;8.540;2022-07-25T01:47:49;13.65;;;12.25;;
21860;SDS011;11095;48.066;8.540;2022-07-25T01:50:15;14.82;;;13.32;;
21860;SDS011;11095;48.066;8.540;2022-07-25T01:52:40;13.88;;;12.57;;
21860;SDS011;11095;48.066;8.540;2022-07-25T01:55:06;13.35;;;12.05;;
21860;SDS011;11095;48.066;8.540;2022-07-25T01:57:33;14.05;;;12.65;;
21860;SDS011;11095;48.066;8.540;2022-07-25T01:59:58;13.32;;;11.95;;
21860;SDS011;11095;48.066;8.540;2022-07-25T02:02:24;12.98;;;11.68;;
21860;SDS011;11095;48.066;8.540;2022-07-25T02:04:50;13.00;;;11.80;;
21860;SDS011;11095;48.066;8.540;2022-07-25T02:07:15;12.77;;;11.48;;
21860;SDS011;11095;48.066;8.540;2022-07-25T02:09:41;13.80;;;12.40;;
21860;SDS011;11095;48.066;8.540;2022-07-25T02:12:07;14.05;;;12.55;;
21860;SDS011;11095;48.066;8.540;2022-07-25T02:14:33;13.43;;;12.13;;
21860;SDS011;11095;48.066;8.540;2022-07-25T02:16:58;13.20;;;11.90;;
21860;SDS011;11095;48.066;8.540;2022-07-25T02:19:24;13.30;;;11.93;;
21860;SDS011;11095;48.066;8.540;2022-07-25T02:21:49;15.00;;;13.35;;
21860;SDS011;11095;48.066;8.540;2022-07-25T02:24:15;13.35;;;12.05;;
21860;SDS011;11095;48.066;8.540;2022-07-25T02:26:41;15.70;;;13.82;;
21860;SDS011;11095;48.066;8.540;2022-07-25T02:29:07;14.32;;;12.90;;
21860;SDS011;11095;48.066;8.540;2022-07-25T02:31:33;15.43;;;13.85;;
21860;SDS011;11095;48.066;8.540;2022-07-25T02:33:58;13.60;;;12.23;;
21860;SDS011;11095;48.066;8.540;2022-07-25T02:36:24;14.20;;;12.48;;
21860;SDS011;11095;48.066;8.540;2022-07-25T02:38:50;13.80;;;12.40;;
21860;SDS011;11095;48.066;8.540;2022-07-25T02:41:15;14.40;;;13.00;;
21860;SDS011;11095;48.066;8.540;2022-07-25T02:43:41;14.57;;;12.98;;
21860;SDS011;11095;48.066;8.540;2022-07-25T02:46:07;14.18;;;12.75;;
21860;SDS011;11095;48.066;8.540;2022-07-25T02:48:32;14.45;;;13.05;;
21860;SDS011;11095;48.066;8.540;2022-07-25T02:50:58;14.38;;;12.98;;
21860;SDS011;11095;48.066;8.540;2022-07-25T02:53:24;13.48;;;12.18;;
21860;SDS011;11095;48.066;8.540;2022-07-25T02:55:49;13.40;;;12.10;;
21860;SDS011;11095;48.066;8.540;2022-07-25T02:58:15;14.27;;;12.77;;
21860;SDS011;11095;48.066;8.540;2022-07-25T03:00:41;15.23;;;13.65;;
21860;SDS011;11095;48.066;8.540;2022-07-25T03:03:06;13.90;;;12.60;;
21860;SDS011;11095;48.066;8.540;2022-07-25T03:05:32;13.82;;;12.52;;
21860;SDS011;11095;48.066;8.540;2022-07-25T03:07:58;13.07;;;11.88;;
21860;SDS011;11095;48.066;8.540;2022-07-25T03:10:23;13.57;;;12.25;;
21860;SDS011;11095;48.066;8.540;2022-07-25T03:12:49;13.60;;;12.02;;
21860;SDS011;11095;48.066;8.540;2022-07-25T03:15:15;14.77;;;13.27;;
21860;SDS011;11095;48.066;8.540;2022-07-25T03:17:40;14.60;;;13.10;;
21860;SDS011;11095;48.066;8.540;2022-07-25T03:20:07;13.40;;;12.15;;
21860;SDS011;11095;48.066;8.540;2022-07-25T03:22:33;13.68;;;12.35;;
21860;SDS011;11095;48.066;8.540;2022-07-25T03:25:00;15.70;;;14.00;;
21860;SDS011;11095;48.066;8.540;2022-07-25T03:27:26;14.73;;;13.23;;
21860;SDS011;11095;48.066;8.540;2022-07-25T03:29:52;14.98;;;13.45;;
21860;SDS011;11095;48.066;8.540;2022-07-25T03:32:18;14.30;;;12.90;;
21860;SDS011;11095;48.066;8.540;2022-07-25T03:34:44;14.43;;;12.95;;
21860;SDS011;11095;48.066;8.540;2022-07-25T03:37:10;15.40;;;13.80;;
21860;SDS011;11095;48.066;8.540;2022-07-25T03:39:36;15.52;;;13.93;;
21860;SDS011;11095;48.066;8.540;2022-07-25T03:42:02;14.68;;;13.15;;
21860;SDS011;11095;48.066;8.540;2022-07-25T03:44:27;14.48;;;13.07;;
21860;SDS011;11095;48.066;8.540;2022-07-25T03:46:53;14.15;;;12.75;;
21860;SDS011;11095;48.066;8.540;2022-07-25T03:49:19;14.98;;;13.02;;
21860;SDS011;11095;48.066;8.540;2022-07-25T03:51:44;13.90;;;12.50;;
21860;SDS011;11095;48.066;8.540;2022-07-25T03:54:10;14.05;;;12.75;;
21860;SDS011;11095;48.066;8.540;2022-07-25T03:59:06;14.43;;;13.02;;
21860;SDS011;11095;48.066;8.540;2022-07-25T04:01:33;14.57;;;13.10;;
21860;SDS011;11095;48.066;8.540;2022-07-25T04:03:59;13.77;;;12.43;;
21860;SDS011;11095;48.066;8.540;2022-07-25T04:06:26;14.20;;;12.80;;
21860;SDS011;11095;48.066;8.540;2022-07-25T04:08:52;14.25;;;12.75;;
21860;SDS011;11095;48.066;8.540;2022-07-25T04:11:18;16.77;;;12.93;;
21860;SDS011;11095;48.066;8.540;2022-07-25T04:13:44;14.23;;;12.73;;
21860;SDS011;11095;48.066;8.540;2022-07-25T04:16:10;12.48;;;11.13;;
21860;SDS011;11095;48.066;8.540;2022-07-25T04:18:36;12.05;;;10.85;;
21860;SDS011;11095;48.066;8.540;2022-07-25T04:21:02;12.15;;;10.95;;
21860;SDS011;11095;48.066;8.540;2022-07-25T04:23:28;11.82;;;10.63;;
21860;SDS011;11095;48.066;8.540;2022-07-25T04:25:55;12.30;;;10.73;;
21860;SDS011;11095;48.066;8.540;2022-07-25T04:28:22;13.48;;;11.55;;
21860;SDS011;11095;48.066;8.540;2022-07-25T04:30:49;13.43;;;10.80;;
21860;SDS011;11095;48.066;8.540;2022-07-25T04:33:15;15.80;;;10.35;;
21860;SDS011;11095;48.066;8.540;2022-07-25T04:35:41;16.50;;;10.68;;
21860;SDS011;11095;48.066;8.540;2022-07-25T04:38:07;14.75;;;10.80;;
21860;SDS011;11095;48.066;8.540;2022-07-25T04:40:33;11.77;;;9.68;;
21860;SDS011;11095;48.066;8.540;2022-07-25T04:42:59;10.02;;;9.02;;
21860;SDS011;11095;48.066;8.540;2022-07-25T04:45:25;10.45;;;9.45;;
21860;SDS011;11095;48.066;8.540;2022-07-25T04:47:51;9.82;;;8.93;;
21860;SDS011;11095;48.066;8.540;2022-07-25T04:50:16;10.52;;;9.52;;
21860;SDS011;11095;48.066;8.540;2022-07-25T04:52:42;9.98;;;9.07;;
21860;SDS011;11095;48.066;8.540;2022-07-25T04:55:08;10.23;;;9.02;;
21860;SDS011;11095;48.066;8.540;2022-07-25T04:57:34;10.13;;;9.18;;
21860;SDS011;11095;48.066;8.540;2022-07-25T05:00:00;10.25;;;9.38;;
21860;SDS011;11095;48.066;8.540;2022-07-25T05:02:29;9.77;;;8.87;;
21860;SDS011;11095;48.066;8.540;2022-07-25T05:04:54;9.48;;;8.63;;
21860;SDS011;11095;48.066;8.540;2022-07-25T05:07:20;9.77;;;8.88;;
21860;SDS011;11095;48.066;8.540;2022-07-25T05:09:45;9.13;;;8.30;;
21860;SDS011;11095;48.066;8.540;2022-07-25T05:12:11;9.93;;;8.90;;
21860;SDS011;11095;48.066;8.540;2022-07-25T05:14:37;8.73;;;8.02;;
21860;SDS011;11095;48.066;8.540;2022-07-25T05:17:02;8.75;;;7.80;;
21860;SDS011;11095;48.066;8.540;2022-07-25T05:19:28;8.57;;;7.88;;
21860;SDS011;11095;48.066;8.540;2022-07-25T05:21:54;9.00;;;8.15;;
21860;SDS011;11095;48.066;8.540;2022-07-25T05:24:19;8.65;;;7.85;;
21860;SDS011;11095;48.066;8.540;2022-07-25T05:26:47;8.80;;;8.00;;
21860;SDS011;11095;48.066;8.540;2022-07-25T05:29:13;7.95;;;7.25;;
21860;SDS011;11095;48.066;8.540;2022-07-25T05:31:39;7.85;;;7.15;;
21860;SDS011;11095;48.066;8.540;2022-07-25T05:34:05;8.57;;;7.80;;
21860;SDS011;11095;48.066;8.540;2022-07-25T05:36:30;8.15;;;7.45;;
21860;SDS011;11095;48.066;8.540;2022-07-25T05:38:57;7.65;;;7.00;;
21860;SDS011;11095;48.066;8.540;2022-07-25T05:41:22;8.63;;;7.78;;
21860;SDS011;11095;48.066;8.540;2022-07-25T05:43:48;7.20;;;6.60;;
21860;SDS011;11095;48.066;8.540;2022-07-25T05:46:14;7.97;;;7.28;;
21860;SDS011;11095;48.066;8.540;2022-07-25T05:48:40;7.70;;;7.03;;
21860;SDS011;11095;48.066;8.540;2022-07-25T05:51:07;7.28;;;6.68;;
21860;SDS011;11095;48.066;8.540;2022-07-25T05:53:32;8.15;;;7.35;;
21860;SDS011;11095;48.066;8.540;2022-07-25T05:55:58;7.50;;;6.90;;
21860;SDS011;11095;48.066;8.540;2022-07-25T05:58:24;8.10;;;7.30;;
21860;SDS011;11095;48.066;8.540;2022-07-25T06:00:50;7.97;;;7.15;;
21860;SDS011;11095;48.066;8.540;2022-07-25T06:03:16;7.82;;;7.13;;
21860;SDS011;11095;48.066;8.540;2022-07-25T06:05:43;7.68;;;6.65;;
21860;SDS011;11095;48.066;8.540;2022-07-25T06:08:10;7.22;;;6.68;;
21860;SDS011;11095;48.066;8.540;2022-07-25T06:10:37;7.15;;;6.60;;
21860;SDS011;11095;48.066;8.540;2022-07-25T06:13:03;7.03;;;6.32;;
21860;SDS011;11095;48.066;8.540;2022-07-25T06:15:28;7.15;;;6.55;;
21860;SDS011;11095;48.066;8.540;2022-07-25T06:17:54;7.35;;;6.65;;
21860;SDS011;11095;48.066;8.540;2022-07-25T06:20:20;8.20;;;7.40;;
21860;SDS011;11095;48.066;8.540;2022-07-25T06:22:46;7.53;;;6.93;;
21860;SDS011;11095;48.066;8.540;2022-07-25T06:25:11;8.52;;;7.30;;
21860;SDS011;11095;48.066;8.540;2022-07-25T06:27:37;7.25;;;6.65;;
21860;SDS011;11095;48.066;8.540;2022-07-25T06:30:03;7.93;;;7.13;;
21860;SDS011;11095;48.066;8.540;2022-07-25T06:32:30;8.15;;;7.45;;
21860;SDS011;11095;48.066;8.540;2022-07-25T06:34:55;8.65;;;7.32;;
21860;SDS011;11095;48.066;8.540;2022-07-25T06:37:21;8.40;;;7.70;;
21860;SDS011;11095;48.066;8.540;2022-07-25T06:39:47;8.07;;;7.40;;
21860;SDS011;11095;48.066;8.540;2022-07-25T06:42:12;7.43;;;6.82;;
21860;SDS011;11095;48.066;8.540;2022-07-25T06:44:38;7.70;;;7.10;;
21860;SDS011;11095;48.066;8.540;2022-07-25T06:47:04;8.50;;;7.70;;
21860;SDS011;11095;48.066;8.540;2022-07-25T06:49:29;8.13;;;7.43;;
21860;SDS011;11095;48.066;8.540;2022-07-25T06:51:55;7.75;;;7.07;;
21860;SDS011;11095;48.066;8.540;2022-07-25T06:54:21;8.20;;;7.47;;
21860;SDS011;11095;48.066;8.540;2022-07-25T06:56:47;7.75;;;7.00;;
21860;SDS011;11095;48.066;8.540;2022-07-25T06:59:13;8.10;;;7.40;;
21860;SDS011;11095;48.066;8.540;2022-07-25T07:01:39;8.40;;;7.70;;
21860;SDS011;11095;48.066;8.540;2022-07-25T07:04:04;8.50;;;7.80;;
21860;SDS011;11095;48.066;8.540;2022-07-25T07:06:30;8.05;;;7.25;;
21860;SDS011;11095;48.066;8.540;2022-07-25T07:08:56;7.65;;;6.95;;
21860;SDS011;11095;48.066;8.540;2022-07-25T07:11:22;8.27;;;7.57;;
21860;SDS011;11095;48.066;8.540;2022-07-25T07:13:47;8.25;;;7.47;;
21860;SDS011;11095;48.066;8.540;2022-07-25T07:16:13;7.07;;;6.47;;
21860;SDS011;11095;48.066;8.540;2022-07-25T07:18:38;7.70;;;7.10;;
21860;SDS011;11095;48.066;8.540;2022-07-25T07:21:04;7.72;;;7.03;;
21860;SDS011;11095;48.066;8.540;2022-07-25T07:23:30;7.70;;;7.10;;
21860;SDS011;11095;48.066;8.540;2022-07-25T07:25:56;7.30;;;6.60;;
21860;SDS011;11095;48.066;8.540;2022-07-25T07:28:22;8.13;;;7.38;;
21860;SDS011;11095;48.066;8.540;2022-07-25T07:30:48;7.25;;;6.65;;
21860;SDS011;11095;48.066;8.540;2022-07-25T07:33:13;7.45;;;6.85;;
21860;SDS011;11095;48.066;8.540;2022-07-25T07:35:41;7.25;;;6.65;;
21860;SDS011;11095;48.066;8.540;2022-07-25T07:38:07;7.18;;;6.55;;
21860;SDS011;11095;48.066;8.540;2022-07-25T07:40:33;7.40;;;6.80;;
21860;SDS011;11095;48.066;8.540;2022-07-25T07:42:59;7.68;;;6.60;;
21860;SDS011;11095;48.066;8.540;2022-07-25T07:45:27;7.43;;;6.82;;
21860;SDS011;11095;48.066;8.540;2022-07-25T07:47:54;6.97;;;6.38;;
21860;SDS011;11095;48.066;8.540;2022-07-25T07:50:21;6.68;;;6.18;;
21860;SDS011;11095;48.066;8.540;2022-07-25T07:52:52;6.95;;;6.45;;
21860;SDS011;11095;48.066;8.540;2022-07-25T07:55:19;7.10;;;6.55;;
21860;SDS011;11095;48.066;8.540;2022-07-25T07:58:04;7.00;;;6.40;;
21860;SDS011;11095;48.066;8.540;2022-07-25T08:00:31;6.95;;;6.35;;
21860;SDS011;11095;48.066;8.540;2022-07-25T08:03:00;7.05;;;6.47;;
21860;SDS011;11095;48.066;8.540;2022-07-25T08:05:28;7.15;;;6.45;;
21860;SDS011;11095;48.066;8.540;2022-07-25T08:07:55;6.35;;;5.85;;
21860;SDS011;11095;48.066;8.540;2022-07-25T08:10:26;6.22;;;5.72;;
21860;SDS011;11095;48.066;8.540;2022-07-25T08:12:53;6.95;;;6.35;;
21860;SDS011;11095;48.066;8.540;2022-07-25T08:15:19;6.68;;;6.07;;
21860;SDS011;11095;48.066;8.540;2022-07-25T08:17:46;6.32;;;5.82;;
21860;SDS011;11095;48.066;8.540;2022-07-25T08:20:14;7.78;;;7.18;;
21860;SDS011;11095;48.066;8.540;2022-07-25T08:22:41;6.95;;;6.35;;
21860;SDS011;11095;48.066;8.540;2022-07-25T08:25:09;7.25;;;6.65;;
21860;SDS011;11095;48.066;8.540;2022-07-25T08:27:37;9.40;;;6.68;;
21860;SDS011;11095;48.066;8.540;2022-07-25T08:30:03;7.05;;;6.45;;
21860;SDS011;11095;48.066;8.540;2022-07-25T08:32:31;6.93;;;6.38;;
21860;SDS011;11095;48.066;8.540;2022-07-25T08:34:57;7.15;;;6.47;;
21860;SDS011;11095;48.066;8.540;2022-07-25T08:37:23;7.70;;;7.03;;
21860;SDS011;11095;48.066;8.540;2022-07-25T08:39:49;8.35;;;7.50;;
21860;SDS011;11095;48.066;8.540;2022-07-25T08:42:16;7.38;;;6.78;;
21860;SDS011;11095;48.066;8.540;2022-07-25T08:44:52;7.35;;;6.65;;
21860;SDS011;11095;48.066;8.540;2022-07-25T08:47:22;7.22;;;6.53;;
21860;SDS011;11095;48.066;8.540;2022-07-25T08:49:48;7.57;;;6.97;;
21860;SDS011;11095;48.066;8.540;2022-07-25T08:52:14;7.28;;;6.68;;
21860;SDS011;11095;48.066;8.540;2022-07-25T08:54:40;7.85;;;7.15;;
21860;SDS011;11095;48.066;8.540;2022-07-25T08:57:06;7.20;;;6.70;;
21860;SDS011;11095;48.066;8.540;2022-07-25T08:59:32;7.18;;;6.57;;
21860;SDS011;11095;48.066;8.540;2022-07-25T09:01:58;7.32;;;6.43;;
21860;SDS011;11095;48.066;8.540;2022-07-25T09:04:27;7.10;;;6.50;;
21860;SDS011;11095;48.066;8.540;2022-07-25T09:06:54;5.80;;;5.30;;
21860;SDS011;11095;48.066;8.540;2022-07-25T09:09:28;7.50;;;5.00;;
21860;SDS011;11095;48.066;8.540;2022-07-25T09:11:54;5.50;;;5.00;;
21860;SDS011;11095;48.066;8.540;2022-07-25T09:14:20;5.45;;;4.95;;
21860;SDS011;11095;48.066;8.540;2022-07-25T09:16:45;5.50;;;5.00;;
21860;SDS011;11095;48.066;8.540;2022-07-25T09:19:12;6.65;;;5.30;;
21860;SDS011;11095;48.066;8.540;2022-07-25T09:21:40;5.10;;;4.70;;
21860;SDS011;11095;48.066;8.540;2022-07-25T09:26:50;5.47;;;4.97;;
21860;SDS011;11095;48.066;8.540;2022-07-25T09:29:18;5.82;;;5.22;;
21860;SDS011;11095;48.066;8.540;2022-07-25T09:31:46;5.20;;;4.70;;
21860;SDS011;11095;48.066;8.540;2022-07-25T09:34:14;5.03;;;4.63;;
21860;SDS011;11095;48.066;8.540;2022-07-25T09:36:51;5.13;;;4.63;;
21860;SDS011;11095;48.066;8.540;2022-07-25T09:41:45;5.32;;;4.82;;
21860;SDS011;11095;48.066;8.540;2022-07-25T09:44:19;5.07;;;4.57;;
21860;SDS011;11095;48.066;8.540;2022-07-25T09:46:54;5.40;;;4.90;;
21860;SDS011;11095;48.066;8.540;2022-07-25T09:49:21;5.28;;;4.88;;
21860;SDS011;11095;48.066;8.540;2022-07-25T09:51:46;5.15;;;4.70;;
21860;SDS011;11095;48.066;8.540;2022-07-25T09:54:12;4.82;;;4.50;;
21860;SDS011;11095;48.066;8.540;2022-07-25T09:56:38;5.50;;;5.00;;
21860;SDS011;11095;48.066;8.540;2022-07-25T09:59:04;5.03;;;4.63;;
21860;SDS011;11095;48.066;8.540;2022-07-25T10:01:33;5.20;;;4.80;;
21860;SDS011;11095;48.066;8.540;2022-07-25T10:04:08;5.40;;;4.90;;
21860;SDS011;11095;48.066;8.540;2022-07-25T10:06:43;5.07;;;4.65;;
21860;SDS011;11095;48.066;8.540;2022-07-25T10:09:21;5.18;;;4.68;;
21860;SDS011;11095;48.066;8.540;2022-07-25T10:14:28;4.80;;;4.40;;
21860;SDS011;11095;48.066;8.540;2022-07-25T10:16:54;5.22;;;4.82;;
21860;SDS011;11095;48.066;8.540;2022-07-25T10:22:09;5.20;;;4.80;;
21860;SDS011;11095;48.066;8.540;2022-07-25T10:24:35;5.20;;;4.80;;
21860;SDS011;11095;48.066;8.540;2022-07-25T10:27:09;4.93;;;4.53;;
21860;SDS011;11095;48.066;8.540;2022-07-25T10:29:37;5.13;;;4.63;;
21860;SDS011;11095;48.066;8.540;2022-07-25T10:32:05;5.10;;;4.70;;
21860;SDS011;11095;48.066;8.540;2022-07-25T10:34:35;5.07;;;4.68;;
21860;SDS011;11095;48.066;8.540;2022-07-25T10:39:38;5.30;;;4.80;;
21860;SDS011;11095;48.066;8.540;2022-07-25T10:42:05;5.05;;;4.55;;
21860;SDS011;11095;48.066;8.540;2022-07-25T10:44:41;4.60;;;4.20;;
21860;SDS011;11095;48.066;8.540;2022-07-25T10:47:09;4.75;;;4.25;;
21860;SDS011;11095;48.066;8.540;2022-07-25T10:49:38;5.03;;;4.53;;
21860;SDS011;11095;48.066;8.540;2022-07-25T10:52:05;4.65;;;4.25;;
21860;SDS011;11095;48.066;8.540;2022-07-25T10:54:36;4.80;;;4.38;;
21860;SDS011;11095;48.066;8.540;2022-07-25T10:57:03;5.60;;;4.00;;
21860;SDS011;11095;48.066;8.540;2022-07-25T10:59:37;4.60;;;4.20;;
21860;SDS011;11095;48.066;8.540;2022-07-25T11:02:04;4.82;;;4.43;;
21860;SDS011;11095;48.066;8.540;2022-07-25T11:04:33;4.80;;;4.40;;
21860;SDS011;11095;48.066;8.540;2022-07-25T11:07:12;5.40;;;3.97;;
21860;SDS011;11095;48.066;8.540;2022-07-25T11:09:43;4.80;;;4.30;;
21860;SDS011;11095;48.066;8.540;2022-07-25T11:14:39;3.88;;;3.58;;
21860;SDS011;11095;48.066;8.540;2022-07-25T11:17:13;9.25;;;7.03;;
21860;SDS011;11095;48.066;8.540;2022-07-25T11:19:55;3.70;;;3.40;;
21860;SDS011;11095;48.066;8.540;2022-07-25T11:22:23;4.10;;;3.70;;
21860;SDS011;11095;48.066;8.540;2022-07-25T11:24:49;4.35;;;3.95;;
21860;SDS011;11095;48.066;8.540;2022-07-25T11:29:48;4.35;;;4.00;;
21860;SDS011;11095;48.066;8.540;2022-07-25T11:32:14;4.60;;;4.13;;
21860;SDS011;11095;48.066;8.540;2022-07-25T11:34:41;4.40;;;4.00;;
21860;SDS011;11095;48.066;8.540;2022-07-25T11:37:11;4.60;;;4.20;;
21860;SDS011;11095;48.066;8.540;2022-07-25T11:39:39;4.00;;;3.70;;
21860;SDS011;11095;48.066;8.540;2022-07-25T11:42:07;4.05;;;3.72;;
21860;SDS011;11095;48.066;8.540;2022-07-25T11:44:35;3.72;;;3.42;;
21860;SDS011;11095;48.066;8.540;2022-07-25T11:49:55;4.07;;;3.65;;
21860;SDS011;11095;48.066;8.540;2022-07-25T11:57:23;4.50;;;4.10;;
21860;SDS011;11095;48.066;8.540;2022-07-25T11:59:49;5.05;;;4.65;;
21860;SDS011;11095;48.066;8.540;2022-07-25T12:02:29;4.80;;;4.40;;
21860;SDS011;11095;48.066;8.540;2022-07-25T12:04:58;5.32;;;4.82;;
21860;SDS011;11095;48.066;8.540;2022-07-25T12:07:44;4.90;;;4.40;;
21860;SDS011;11095;48.066;8.540;2022-07-25T12:10:20;4.20;;;3.80;;
21860;SDS011;11095;48.066;8.540;2022-07-25T12:12:52;4.75;;;4.20;;
21860;SDS011;11095;48.066;8.540;2022-07-25T12:15:20;4.95;;;4.32;;
21860;SDS011;11095;48.066;8.540;2022-07-25T12:17:49;4.93;;;4.35;;
21860;SDS011;11095;48.066;8.540;2022-07-25T12:20:17;4.85;;;4.45;;
21860;SDS011;11095;48.066;8.540;2022-07-25T12:22:44;5.75;;;4.93;;
21860;SDS011;11095;48.066;8.540;2022-07-25T12:25:10;5.45;;;4.90;;
21860;SDS011;11095;48.066;8.540;2022-07-25T12:27:36;5.18;;;4.68;;
21860;SDS011;11095;48.066;8.540;2022-07-25T12:30:03;6.47;;;4.82;;
21860;SDS011;11095;48.066;8.540;2022-07-25T12:32:30;5.25;;;4.63;;
21860;SDS011;11095;48.066;8.540;2022-07-25T12:34:56;5.20;;;4.70;;
21860;SDS011;11095;48.066;8.540;2022-07-25T12:37:22;6.63;;;5.70;;
21860;SDS011;11095;48.066;8.540;2022-07-25T12:39:47;6.18;;;5.68;;
21860;SDS011;11095;48.066;8.540;2022-07-25T12:42:13;6.53;;;6.00;;
21860;SDS011;11095;48.066;8.540;2022-07-25T12:44:39;6.20;;;5.70;;
21860;SDS011;11095;48.066;8.540;2022-07-25T12:47:05;8.35;;;6.15;;
21860;SDS011;11095;48.066;8.540;2022-07-25T12:49:31;7.35;;;6.25;;
21860;SDS011;11095;48.066;8.540;2022-07-25T12:51:56;7.45;;;6.15;;
21860;SDS011;11095;48.066;8.540;2022-07-25T12:54:22;6.85;;;6.00;;
21860;SDS011;11095;48.066;8.540;2022-07-25T12:56:48;7.22;;;6.57;;
21860;SDS011;11095;48.066;8.540;2022-07-25T12:59:14;7.28;;;6.57;;
21860;SDS011;11095;48.066;8.540;2022-07-25T13:01:40;8.88;;;6.75;;
21860;SDS011;11095;48.066;8.540;2022-07-25T13:04:06;7.35;;;6.65;;
21860;SDS011;11095;48.066;8.540;2022-07-25T13:06:33;7.47;;;6.75;;
21860;SDS011;11095;48.066;8.540;2022-07-25T13:09:00;8.35;;;7.55;;
21860;SDS011;11095;48.066;8.540;2022-07-25T13:11:25;7.88;;;7.18;;
21860;SDS011;11095;48.066;8.540;2022-07-25T13:13:51;7.28;;;6.60;;
21860;SDS011;11095;48.066;8.540;2022-07-25T13:16:17;7.88;;;7.07;;
21860;SDS011;11095;48.066;8.540;2022-07-25T13:18:42;7.78;;;6.97;;
21860;SDS011;11095;48.066;8.540;2022-07-25T13:21:08;7.70;;;7.00;;
21860;SDS011;11095;48.066;8.540;2022-07-25T13:23:34;7.43;;;6.70;;
21860;SDS011;11095;48.066;8.540;2022-07-25T13:26:00;7.13;;;6.53;;
21860;SDS011;11095;48.066;8.540;2022-07-25T13:28:26;7.40;;;6.70;;
21860;SDS011;11095;48.066;8.540;2022-07-25T13:30:52;7.97;;;7.25;;
21860;SDS011;11095;48.066;8.540;2022-07-25T13:33:18;7.38;;;6.68;;
21860;SDS011;11095;48.066;8.540;2022-07-25T13:35:43;7.03;;;6.43;;
21860;SDS011;11095;48.066;8.540;2022-07-25T13:38:09;7.28;;;6.57;;
21860;SDS011;11095;48.066;8.540;2022-07-25T13:40:36;7.18;;;6.57;;
21860;SDS011;11095;48.066;8.540;2022-07-25T13:43:06;7.65;;;6.70;;
21860;SDS011;11095;48.066;8.540;2022-07-25T13:45:33;7.18;;;6.50;;
21860;SDS011;11095;48.066;8.540;2022-07-25T13:47:58;7.18;;;6.47;;
21860;SDS011;11095;48.066;8.540;2022-07-25T13:50:24;7.40;;;6.70;;
21860;SDS011;11095;48.066;8.540;2022-07-25T13:52:50;6.82;;;6.22;;
21860;SDS011;11095;48.066;8.540;2022-07-25T13:55:16;7.18;;;6.47;;
21860;SDS011;11095;48.066;8.540;2022-07-25T13:57:43;6.70;;;6.10;;
21860;SDS011;11095;48.066;8.540;2022-07-25T14:00:09;7.10;;;6.40;;
21860;SDS011;11095;48.066;8.540;2022-07-25T14:02:35;7.03;;;6.32;;
21860;SDS011;11095;48.066;8.540;2022-07-25T14:05:01;6.47;;;5.97;;
21860;SDS011;11095;48.066;8.540;2022-07-25T14:07:27;7.40;;;6.65;;
21860;SDS011;11095;48.066;8.540;2022-07-25T14:09:53;6.70;;;6.10;;
21860;SDS011;11095;48.066;8.540;2022-07-25T14:12:19;7.05;;;6.35;;
21860;SDS011;11095;48.066;8.540;2022-07-25T14:14:44;8.40;;;6.75;;
21860;SDS011;11095;48.066;8.540;2022-07-25T14:17:10;6.85;;;6.25;;
21860;SDS011;11095;48.066;8.540;2022-07-25T14:19:36;7.22;;;6.45;;
21860;SDS011;11095;48.066;8.540;2022-07-25T14:22:01;6.85;;;6.22;;
21860;SDS011;11095;48.066;8.540;2022-07-25T14:24:27;7.13;;;6.43;;
21860;SDS011;11095;48.066;8.540;2022-07-25T14:26:53;6.85;;;6.25;;
21860;SDS011;11095;48.066;8.540;2022-07-25T14:29:19;7.15;;;6.40;;
21860;SDS011;11095;48.066;8.540;2022-07-25T14:31:45;7.20;;;6.50;;
21860;SDS011;11095;48.066;8.540;2022-07-25T14:34:11;7.20;;;6.50;;
21860;SDS011;11095;48.066;8.540;2022-07-25T14:36:39;6.93;;;6.28;;
21860;SDS011;11095;48.066;8.540;2022-07-25T14:39:05;8.63;;;6.95;;
21860;SDS011;11095;48.066;8.540;2022-07-25T14:41:31;7.30;;;6.70;;
21860;SDS011;11095;48.066;8.540;2022-07-25T14:43:56;7.55;;;6.85;;
21860;SDS011;11095;48.066;8.540;2022-07-25T14:46:23;7.13;;;6.43;;
21860;SDS011;11095;48.066;8.540;2022-07-25T14:48:49;6.88;;;6.28;;
21860;SDS011;11095;48.066;8.540;2022-07-25T14:51:16;7.53;;;6.20;;
21860;SDS011;11095;48.066;8.540;2022-07-25T14:53:42;6.95;;;6.13;;
21860;SDS011;11095;48.066;8.540;2022-07-25T14:56:08;6.70;;;6.10;;
21860;SDS011;11095;48.066;8.540;2022-07-25T14:58:34;7.28;;;6.32;;
21860;SDS011;11095;48.066;8.540;2022-07-25T15:01:00;6.82;;;6.22;;
21860;SDS011;11095;48.066;8.540;2022-07-25T15:03:26;6.85;;;6.07;;